Time;durP1;ratioP1;P1;durP2;ratioP2;P2;SDS_P1;SDS_P2;PMS_P1;PMS_P2;Temp;Humidity;BMP_temperature;BMP_pressure;BME280_temperature;BME280_humidity;BME280_pressure;Samples;Min_cycle;Max_cycle;Signal;HPM_P1;HPM_P2
2022/06/26 00:01:08;0.00;0.00;0.62;0.00;0.00;0.62;4.27;3.17;;;29.60;31.40;;;;;;2251557;61;20391;-53
2022/06/26 00:03:53;0.00;0.00;0.62;0.00;0.00;0.62;4.50;3.10;;;29.60;31.50;;;;;;2247917;61;20641;-57
2022/06/26 00:06:40;0.00;0.00;0.62;0.00;0.00;0.62;3.60;3.30;;;29.60;31.60;;;;;;2251053;61;20433;-56
2022/06/26 00:09:25;0.00;0.00;0.62;0.00;0.00;0.62;3.70;3.33;;;29.50;31.50;;;;;;2251535;61;20418;-56
2022/06/26 00:12:10;0.00;0.00;0.62;0.00;0.00;0.62;4.27;2.97;;;29.50;31.50;;;;;;2247534;61;20381;-58
2022/06/26 00:14:55;0.00;0.00;0.62;0.00;0.00;0.62;3.30;3.00;;;29.50;31.50;;;;;;2251078;61;20358;-56
2022/06/26 00:17:39;0.00;0.00;0.62;0.00;0.00;0.62;3.23;2.93;;;29.50;31.50;;;;;;2251730;61;20445;-57
2022/06/26 00:20:24;0.00;0.00;0.62;0.00;0.00;0.62;3.17;2.80;;;29.40;31.50;;;;;;2250433;61;20923;-56
2022/06/26 00:23:11;0.00;0.00;0.62;0.00;0.00;0.62;3.07;2.77;;;29.40;31.40;;;;;;2248031;61;20401;-56
2022/06/26 00:25:55;0.00;0.00;0.62;0.00;0.00;0.62;3.20;2.87;;;29.40;31.40;;;;;;2251673;61;20398;-54
2022/06/26 00:28:40;0.00;0.00;0.62;0.00;0.00;0.62;8.77;3.20;;;29.40;31.50;;;;;;2251525;61;20433;-57
2022/06/26 00:31:25;0.00;0.00;0.62;0.00;0.00;0.62;3.37;3.07;;;29.30;31.50;;;;;;2251983;61;20766;-55
2022/06/26 00:34:10;0.00;0.00;0.62;0.00;0.00;0.62;3.33;3.03;;;29.30;31.40;;;;;;2248259;61;20432;-56
2022/06/26 00:36:55;0.00;0.00;0.62;0.00;0.00;0.62;4.33;2.77;;;29.30;31.40;;;;;;2251491;61;20418;-54
2022/06/26 00:39:42;0.00;0.00;0.62;0.00;0.00;0.62;2.70;2.47;;;29.20;31.40;;;;;;2252321;61;20426;-54
2022/06/26 00:42:27;0.00;0.00;0.62;0.00;0.00;0.62;3.00;2.70;;;29.20;31.40;;;;;;2250883;61;20518;-56
2022/06/26 00:45:12;0.00;0.00;0.62;0.00;0.00;0.62;3.20;2.90;;;29.20;31.40;;;;;;2252113;61;20367;-52
2022/06/26 00:47:58;0.00;0.00;0.62;0.00;0.00;0.62;2.80;2.10;;;29.20;31.40;;;;;;2252127;61;20885;-56
2022/06/26 00:50:43;0.00;0.00;0.62;0.00;0.00;0.62;2.70;2.50;;;29.20;31.50;;;;;;2248102;61;20907;-57
2022/06/26 00:53:28;0.00;0.00;0.62;0.00;0.00;0.62;2.73;2.53;;;29.20;31.50;;;;;;2252076;61;20371;-56
2022/06/26 00:56:14;0.00;0.00;0.62;0.00;0.00;0.62;3.17;2.90;;;29.20;31.60;;;;;;2248246;61;20363;-55
2022/06/26 00:59:00;0.00;0.00;0.62;0.00;0.00;0.62;3.27;2.97;;;29.20;31.60;;;;;;2251695;61;20433;-55
2022/06/26 01:01:45;0.00;0.00;0.62;0.00;0.00;0.62;3.60;3.30;;;29.20;31.60;;;;;;2249243;61;20413;-57
2022/06/26 01:04:30;0.00;0.00;0.62;0.00;0.00;0.62;4.30;3.30;;;29.20;31.50;;;;;;2250909;61;20566;-57
2022/06/26 01:07:15;0.00;0.00;0.62;0.00;0.00;0.62;3.00;2.70;;;29.10;31.40;;;;;;2249253;61;20366;-56
2022/06/26 01:10:03;0.00;0.00;0.62;0.00;0.00;0.62;3.50;3.20;;;29.10;31.40;;;;;;2252102;61;20361;-57
2022/06/26 01:12:50;0.00;0.00;0.62;0.00;0.00;0.62;3.30;2.80;;;29.10;31.40;;;;;;2247865;61;20410;-57
2022/06/26 01:15:35;0.00;0.00;0.62;0.00;0.00;0.62;2.90;2.63;;;29.10;31.40;;;;;;2252126;61;20367;-57
2022/06/26 01:18:21;0.00;0.00;0.62;0.00;0.00;0.62;4.73;3.27;;;29.10;31.30;;;;;;2251420;61;20382;-55
2022/06/26 01:21:06;0.00;0.00;0.62;0.00;0.00;0.62;13.37;3.50;;;29.10;31.30;;;;;;2251535;61;20923;-55
2022/06/26 01:23:55;0.00;0.00;0.62;0.00;0.00;0.62;3.60;3.30;;;29.00;31.10;;;;;;2248935;61;20363;-56
2022/06/26 01:26:41;0.00;0.00;0.62;0.00;0.00;0.62;4.53;2.87;;;29.00;31.10;;;;;;2248139;61;20371;-55
2022/06/26 01:29:27;0.00;0.00;0.62;0.00;0.00;0.62;3.37;3.07;;;29.00;31.10;;;;;;2246182;61;20531;-56
2022/06/26 01:32:12;0.00;0.00;0.62;0.00;0.00;0.62;3.83;2.90;;;29.00;31.10;;;;;;2248884;61;20367;-55
2022/06/26 01:34:57;0.00;0.00;0.62;0.00;0.00;0.62;4.47;3.23;;;28.90;31.10;;;;;;2247559;61;21007;-57
2022/06/26 01:37:43;0.00;0.00;0.62;0.00;0.00;0.62;3.67;3.37;;;28.90;31.10;;;;;;2252159;61;20421;-53
2022/06/26 01:40:29;0.00;0.00;0.62;0.00;0.00;0.62;5.63;3.20;;;28.90;31.20;;;;;;2251204;61;20406;-54
2022/06/26 01:43:17;0.00;0.00;0.62;0.00;0.00;0.62;5.40;2.67;;;28.90;31.20;;;;;;2248078;61;20478;-55
2022/06/26 01:46:04;0.00;0.00;0.62;0.00;0.00;0.62;4.57;2.90;;;28.90;31.10;;;;;;2249129;61;20494;-56
2022/06/26 01:48:51;0.00;0.00;0.62;0.00;0.00;0.62;2.90;2.70;;;28.90;31.10;;;;;;2248105;61;20387;-55
2022/06/26 01:51:36;0.00;0.00;0.62;0.00;0.00;0.62;2.80;2.60;;;28.90;31.00;;;;;;2248940;61;20363;-56
2022/06/26 01:54:21;0.00;0.00;0.62;0.00;0.00;0.62;3.17;2.60;;;28.90;30.90;;;;;;2251509;61;20406;-53
2022/06/26 01:57:08;0.00;0.00;0.62;0.00;0.00;0.62;3.30;3.00;;;28.80;30.80;;;;;;2250964;61;20777;-52
2022/06/26 01:59:54;0.00;0.00;0.62;0.00;0.00;0.62;5.17;2.27;;;28.80;30.70;;;;;;2248927;61;20387;-56
2022/06/26 02:02:41;0.00;0.00;0.62;0.00;0.00;0.62;3.33;3.03;;;28.80;30.60;;;;;;2248137;61;20362;-54
2022/06/26 02:05:27;0.00;0.00;0.62;0.00;0.00;0.62;3.10;2.50;;;28.80;30.60;;;;;;2251432;61;20374;-52
2022/06/26 02:08:12;0.00;0.00;0.62;0.00;0.00;0.62;4.00;3.07;;;28.80;30.40;;;;;;2249025;61;21037;-53
2022/06/26 02:14:03;0.00;0.00;0.62;0.00;0.00;0.62;2.60;2.40;;;28.70;30.30;;;;;;2248597;61;20366;-53
2022/06/26 02:16:57;0.00;0.00;0.62;0.00;0.00;0.62;3.37;3.00;;;28.60;30.30;;;;;;2248333;61;20407;-54
2022/06/26 02:19:44;0.00;0.00;0.62;0.00;0.00;0.62;5.70;2.90;;;28.60;30.30;;;;;;2248186;61;20466;-54
2022/06/26 02:22:30;0.00;0.00;0.62;0.00;0.00;0.62;3.03;2.73;;;28.60;30.30;;;;;;2248750;61;20363;-55
2022/06/26 02:25:14;0.00;0.00;0.62;0.00;0.00;0.62;3.20;2.70;;;28.50;30.30;;;;;;2248079;61;20386;-56
2022/06/26 02:27:59;0.00;0.00;0.62;0.00;0.00;0.62;3.10;2.80;;;28.50;30.40;;;;;;2251654;61;20379;-53
2022/06/26 02:30:46;0.00;0.00;0.62;0.00;0.00;0.62;2.87;2.67;;;28.40;30.40;;;;;;2251973;61;20935;-54
2022/06/26 02:33:32;0.00;0.00;0.62;0.00;0.00;0.62;3.23;3.03;;;28.40;30.40;;;;;;2247368;61;20410;-56
2022/06/26 02:36:17;0.00;0.00;0.62;0.00;0.00;0.62;2.97;2.67;;;28.40;30.50;;;;;;2248865;61;20413;-55
2022/06/26 02:39:02;0.00;0.00;0.62;0.00;0.00;0.62;3.10;2.53;;;28.40;30.60;;;;;;2251694;61;21062;-52
2022/06/26 02:41:47;0.00;0.00;0.62;0.00;0.00;0.62;2.90;2.60;;;28.30;30.50;;;;;;2250887;61;20442;-53
2022/06/26 02:44:34;0.00;0.00;0.62;0.00;0.00;0.62;3.23;2.87;;;28.30;30.50;;;;;;2251648;61;20883;-54
2022/06/26 02:47:20;0.00;0.00;0.62;0.00;0.00;0.62;3.20;2.90;;;28.30;30.50;;;;;;2248150;61;20366;-52
2022/06/26 02:50:07;0.00;0.00;0.62;0.00;0.00;0.62;3.07;2.70;;;28.20;30.60;;;;;;2247990;61;20406;-53
2022/06/26 02:52:52;0.00;0.00;0.62;0.00;0.00;0.62;3.47;2.77;;;28.20;30.60;;;;;;2252022;61;20839;-55
2022/06/26 02:55:38;0.00;0.00;0.62;0.00;0.00;0.62;3.30;3.00;;;28.20;30.70;;;;;;2250454;61;20401;-55
2022/06/26 02:58:24;0.00;0.00;0.62;0.00;0.00;0.62;3.23;2.93;;;28.10;30.70;;;;;;2248934;61;20390;-54
2022/06/26 03:01:21;0.00;0.00;0.62;0.00;0.00;0.62;2.70;2.47;;;28.10;30.70;;;;;;2248746;61;20390;-55
2022/06/26 03:04:09;0.00;0.00;0.62;0.00;0.00;0.62;3.40;2.83;;;28.10;30.80;;;;;;2248097;61;20391;-56
2022/06/26 03:06:54;0.00;0.00;0.62;0.00;0.00;0.62;4.20;2.87;;;28.10;30.80;;;;;;2249303;61;20374;-57
2022/06/26 03:09:40;0.00;0.00;0.62;0.00;0.00;0.62;3.53;3.03;;;28.00;30.80;;;;;;2247840;61;20374;-56
2022/06/26 03:12:25;0.00;0.00;0.62;0.00;0.00;0.62;2.97;2.70;;;28.00;30.80;;;;;;2248324;61;20464;-52
2022/06/26 03:15:11;0.00;0.00;0.62;0.00;0.00;0.62;3.40;3.10;;;27.90;30.80;;;;;;2248579;61;20366;-56
2022/06/26 03:17:56;0.00;0.00;0.62;0.00;0.00;0.62;3.30;3.00;;;27.90;31.00;;;;;;2247337;61;20438;-52
2022/06/26 03:20:43;0.00;0.00;0.62;0.00;0.00;0.62;2.70;2.40;;;27.90;31.00;;;;;;2248789;61;20470;-55
2022/06/26 03:26:36;0.00;0.00;0.62;0.00;0.00;0.62;3.27;2.97;;;27.80;31.10;;;;;;2248372;61;20447;-51
2022/06/26 03:29:24;0.00;0.00;0.62;0.00;0.00;0.62;3.60;3.30;;;27.90;31.20;;;;;;2248715;61;20394;-55
2022/06/26 03:32:09;0.00;0.00;0.62;0.00;0.00;0.62;2.67;2.47;;;27.80;31.10;;;;;;2247940;61;20398;-55
2022/06/26 03:35:03;0.00;0.00;0.62;0.00;0.00;0.62;3.60;2.87;;;27.80;31.20;;;;;;2248409;61;20546;-56
2022/06/26 03:37:49;0.00;0.00;0.62;0.00;0.00;0.62;3.37;2.83;;;27.90;31.30;;;;;;2248866;61;20410;-53
2022/06/26 03:40:34;0.00;0.00;0.62;0.00;0.00;0.62;4.17;2.83;;;27.80;31.30;;;;;;2247520;61;20422;-53
2022/06/26 03:43:19;0.00;0.00;0.62;0.00;0.00;0.62;3.47;3.17;;;27.80;31.30;;;;;;2248560;61;20954;-52
2022/06/26 03:46:07;0.00;0.00;0.62;0.00;0.00;0.62;2.97;2.67;;;27.80;31.30;;;;;;2248127;61;20468;-54
2022/06/26 03:48:52;0.00;0.00;0.62;0.00;0.00;0.62;3.63;2.80;;;27.90;31.10;;;;;;2251332;61;20783;-53
2022/06/26 03:51:37;0.00;0.00;0.62;0.00;0.00;0.62;3.03;2.73;;;27.80;31.00;;;;;;2248706;61;20363;-53
2022/06/26 03:54:25;0.00;0.00;0.62;0.00;0.00;0.62;2.97;2.77;;;27.80;31.00;;;;;;2250818;61;20370;-52
2022/06/26 03:57:10;0.00;0.00;0.62;0.00;0.00;0.62;3.30;2.47;;;27.80;31.00;;;;;;2248410;61;20364;-54
2022/06/26 03:59:56;0.00;0.00;0.62;0.00;0.00;0.62;5.13;3.10;;;27.80;31.10;;;;;;2248605;61;20426;-52
2022/06/26 04:03:04;0.00;0.00;0.62;0.00;0.00;0.62;3.33;2.90;;;27.70;31.00;;;;;;2251303;61;20449;-54
2022/06/26 04:05:49;0.00;0.00;0.62;0.00;0.00;0.62;4.23;2.93;;;27.70;31.10;;;;;;2248353;61;20382;-53
2022/06/26 04:08:34;0.00;0.00;0.62;0.00;0.00;0.62;3.33;3.00;;;27.70;31.20;;;;;;2251431;61;20386;-52
2022/06/26 04:11:23;0.00;0.00;0.62;0.00;0.00;0.62;3.60;2.97;;;27.70;31.30;;;;;;2248578;61;20378;-52
2022/06/26 04:14:16;0.00;0.00;0.62;0.00;0.00;0.62;3.33;2.60;;;27.60;31.30;;;;;;2251259;61;20425;-54
2022/06/26 04:17:02;0.00;0.00;0.62;0.00;0.00;0.62;3.73;3.00;;;27.60;31.40;;;;;;2248556;61;20794;-56
2022/06/26 04:19:49;0.00;0.00;0.62;0.00;0.00;0.62;3.93;3.10;;;27.60;31.60;;;;;;2249068;61;20386;-53
2022/06/26 04:22:33;0.00;0.00;0.62;0.00;0.00;0.62;3.20;2.70;;;27.50;31.70;;;;;;2249083;61;20850;-54
2022/06/26 04:25:18;0.00;0.00;0.62;0.00;0.00;0.62;4.10;3.03;;;27.50;31.70;;;;;;2251239;61;20444;-55
2022/06/26 04:28:06;0.00;0.00;0.62;0.00;0.00;0.62;3.40;2.87;;;27.40;31.70;;;;;;2248974;61;20483;-53
2022/06/26 04:30:55;0.00;0.00;0.62;0.00;0.00;0.62;3.40;3.10;;;27.40;31.70;;;;;;2251205;61;20807;-54
2022/06/26 04:33:41;0.00;0.00;0.62;0.00;0.00;0.62;3.07;2.77;;;27.40;31.70;;;;;;2248321;61;20960;-52
2022/06/26 04:36:26;0.00;0.00;0.62;0.00;0.00;0.62;3.37;2.97;;;27.40;31.70;;;;;;2248991;61;20382;-51
2022/06/26 04:39:11;0.00;0.00;0.62;0.00;0.00;0.62;3.27;3.07;;;27.40;31.70;;;;;;2251292;61;20390;-56
2022/06/26 04:41:56;0.00;0.00;0.62;0.00;0.00;0.62;3.50;2.90;;;27.40;31.70;;;;;;2248854;61;20358;-56
2022/06/26 04:44:45;0.00;0.00;0.62;0.00;0.00;0.62;4.97;3.03;;;27.40;31.70;;;;;;2248855;61;20398;-57
2022/06/26 04:47:30;0.00;0.00;0.62;0.00;0.00;0.62;3.40;3.10;;;27.40;31.70;;;;;;2248467;61;20927;-55
2022/06/26 04:50:27;0.00;0.00;0.62;0.00;0.00;0.62;3.23;2.70;;;27.40;31.70;;;;;;2248904;61;20942;-53
2022/06/26 04:53:13;0.00;0.00;0.62;0.00;0.00;0.62;4.07;3.30;;;27.40;31.70;;;;;;2248423;61;20363;-54
2022/06/26 04:55:58;0.00;0.00;0.62;0.00;0.00;0.62;3.70;2.73;;;27.40;31.80;;;;;;2248412;61;20371;-55
2022/06/26 04:58:44;0.00;0.00;0.62;0.00;0.00;0.62;3.50;3.20;;;27.40;31.80;;;;;;2248966;61;20386;-53
2022/06/26 05:01:30;0.00;0.00;0.62;0.00;0.00;0.62;3.20;2.90;;;27.40;31.90;;;;;;2248157;61;20811;-55
2022/06/26 05:04:33;0.00;0.00;0.62;0.00;0.00;0.62;3.30;3.03;;;27.40;31.90;;;;;;2248664;61;20363;-56
2022/06/26 05:07:37;0.00;0.00;0.62;0.00;0.00;0.62;3.00;2.70;;;27.40;31.90;;;;;;2249071;61;20514;-53
2022/06/26 05:10:22;0.00;0.00;0.62;0.00;0.00;0.62;4.50;3.50;;;27.40;31.80;;;;;;2248075;61;20359;-55
2022/06/26 05:13:13;0.00;0.00;0.62;0.00;0.00;0.62;3.30;2.87;;;27.40;31.70;;;;;;2248586;61;20449;-55
2022/06/26 05:16:02;0.00;0.00;0.62;0.00;0.00;0.62;4.10;3.27;;;27.40;31.70;;;;;;2251730;61;20950;-56
2022/06/26 05:18:48;0.00;0.00;0.62;0.00;0.00;0.62;2.97;2.77;;;27.50;31.80;;;;;;2248778;61;20379;-56
2022/06/26 05:21:33;0.00;0.00;0.62;0.00;0.00;0.62;3.33;3.03;;;27.50;31.70;;;;;;2248804;61;20390;-54
2022/06/26 05:24:18;0.00;0.00;0.62;0.00;0.00;0.62;4.30;2.83;;;27.50;31.70;;;;;;2250978;61;20402;-54
2022/06/26 05:27:05;0.00;0.00;0.62;0.00;0.00;0.62;3.13;2.83;;;27.60;31.80;;;;;;2248699;61;20502;-54
2022/06/26 05:29:51;0.00;0.00;0.62;0.00;0.00;0.62;4.90;2.90;;;27.60;31.90;;;;;;2248506;61;20417;-52
2022/06/26 05:32:35;0.00;0.00;0.62;0.00;0.00;0.62;3.00;2.70;;;27.60;31.80;;;;;;2248394;61;20461;-55
2022/06/26 05:35:27;0.00;0.00;0.62;0.00;0.00;0.62;3.80;3.37;;;27.60;31.90;;;;;;2248626;61;20918;-55
2022/06/26 05:38:12;0.00;0.00;0.62;0.00;0.00;0.62;3.23;2.50;;;27.70;32.70;;;;;;2251119;61;20382;-54
2022/06/26 05:40:57;0.00;0.00;0.62;0.00;0.00;0.62;3.53;2.67;;;27.70;32.10;;;;;;2248873;61;20882;-54
2022/06/26 05:43:42;0.00;0.00;0.62;0.00;0.00;0.62;2.90;2.67;;;27.70;32.20;;;;;;2248463;61;20386;-54
2022/06/26 05:46:29;0.00;0.00;0.62;0.00;0.00;0.62;3.40;3.07;;;27.70;32.10;;;;;;2248042;61;20402;-53
2022/06/26 05:49:21;0.00;0.00;0.62;0.00;0.00;0.62;2.87;2.40;;;27.80;32.10;;;;;;2248785;61;20783;-54
2022/06/26 05:52:27;0.00;0.00;0.62;0.00;0.00;0.62;3.57;2.60;;;27.80;32.00;;;;;;2248349;61;20399;-54
2022/06/26 05:55:33;0.00;0.00;0.62;0.00;0.00;0.62;3.20;2.90;;;27.90;32.00;;;;;;2251418;61;20398;-56
2022/06/26 05:58:38;0.00;0.00;0.62;0.00;0.00;0.62;2.40;2.20;;;27.90;32.00;;;;;;2251900;61;20437;-57
2022/06/26 06:01:29;0.00;0.00;0.62;0.00;0.00;0.62;2.73;2.53;;;27.90;32.00;;;;;;2251499;61;20800;-56
2022/06/26 06:04:22;0.00;0.00;0.62;0.00;0.00;0.62;2.90;2.60;;;27.90;32.20;;;;;;2251313;61;20358;-55
2022/06/26 06:07:07;0.00;0.00;0.62;0.00;0.00;0.62;3.43;3.13;;;28.00;32.20;;;;;;2251398;61;20363;-54
2022/06/26 06:09:53;0.00;0.00;0.62;0.00;0.00;0.62;3.30;2.90;;;28.00;32.10;;;;;;2248250;61;20359;-54
2022/06/26 06:12:39;0.00;0.00;0.62;0.00;0.00;0.62;3.23;3.00;;;28.00;32.10;;;;;;2248777;61;20904;-54
2022/06/26 06:15:25;0.00;0.00;0.62;0.00;0.00;0.62;3.03;2.73;;;28.00;32.20;;;;;;2251323;61;20358;-57
2022/06/26 06:18:13;0.00;0.00;0.62;0.00;0.00;0.62;3.30;3.00;;;28.00;32.10;;;;;;2248682;61;20386;-55
2022/06/26 06:20:58;0.00;0.00;0.62;0.00;0.00;0.62;3.10;2.80;;;28.00;32.10;;;;;;2248685;61;20851;-53
2022/06/26 06:23:44;0.00;0.00;0.62;0.00;0.00;0.62;3.43;2.90;;;28.10;32.20;;;;;;2251232;61;20367;-51
2022/06/26 06:26:30;0.00;0.00;0.62;0.00;0.00;0.62;3.07;2.70;;;28.10;32.20;;;;;;2248777;61;20410;-55
2022/06/26 06:29:25;0.00;0.00;0.62;0.00;0.00;0.62;2.90;2.70;;;28.10;32.30;;;;;;2248247;61;20414;-57
2022/06/26 06:32:10;0.00;0.00;0.62;0.00;0.00;0.62;3.30;3.00;;;28.10;32.10;;;;;;2251436;61;20455;-56
2022/06/26 06:34:56;0.00;0.00;0.62;0.00;0.00;0.62;4.07;3.10;;;28.10;32.10;;;;;;2248457;61;20359;-51
2022/06/26 06:37:42;0.00;0.00;0.62;0.00;0.00;0.62;2.90;2.70;;;28.10;32.20;;;;;;2248027;61;20434;-57
2022/06/26 06:40:27;0.00;0.00;0.62;0.00;0.00;0.62;3.33;3.00;;;28.20;32.60;;;;;;2251473;61;20405;-57
2022/06/26 06:43:17;0.00;0.00;0.62;0.00;0.00;0.62;2.87;2.57;;;28.20;32.20;;;;;;2248614;61;20885;-54
2022/06/26 06:46:37;0.00;0.00;0.62;0.00;0.00;0.62;3.77;3.30;;;28.20;32.30;;;;;;2226644;62;20368;-57
2022/06/26 06:49:32;0.00;0.00;0.62;0.00;0.00;0.62;3.00;2.60;;;28.20;32.30;;;;;;2248568;61;20502;-54
2022/06/26 06:52:22;0.00;0.00;0.62;0.00;0.00;0.62;3.30;3.00;;;28.30;32.30;;;;;;2248149;61;20458;-56
2022/06/26 06:55:08;0.00;0.00;0.62;0.00;0.00;0.62;3.70;3.03;;;28.30;32.30;;;;;;2248471;61;20455;-58
2022/06/26 06:57:53;0.00;0.00;0.62;0.00;0.00;0.62;3.27;2.97;;;28.30;32.30;;;;;;2248632;61;20787;-60
2022/06/26 07:00:40;0.00;0.00;0.62;0.00;0.00;0.62;3.23;2.90;;;28.40;32.30;;;;;;2248070;61;20453;-59
2022/06/26 07:03:30;0.00;0.00;0.62;0.00;0.00;0.62;3.40;3.10;;;28.40;32.20;;;;;;2248323;61;20359;-58
2022/06/26 07:06:15;0.00;0.00;0.62;0.00;0.00;0.62;2.90;2.70;;;28.40;32.20;;;;;;2251321;61;20378;-60
2022/06/26 07:08:59;0.00;0.00;0.62;0.00;0.00;0.62;5.37;3.20;;;28.40;32.20;;;;;;2251204;61;20522;-56
2022/06/26 07:11:48;0.00;0.00;0.62;0.00;0.00;0.62;2.75;2.55;;;28.50;32.10;;;;;;2248387;61;20356;-57
2022/06/26 07:14:32;0.00;0.00;0.62;0.00;0.00;0.62;3.20;2.90;;;28.50;32.10;;;;;;2251124;61;20238;-57
2022/06/26 07:17:21;0.00;0.00;0.62;0.00;0.00;0.62;3.03;2.73;;;28.60;31.90;;;;;;2248492;61;20760;-59
2022/06/26 07:20:11;0.00;0.00;0.62;0.00;0.00;0.62;3.67;2.73;;;28.60;31.90;;;;;;2248540;61;20475;-57
2022/06/26 07:22:56;0.00;0.00;0.62;0.00;0.00;0.62;2.63;2.43;;;28.60;31.80;;;;;;2250933;61;20366;-60
2022/06/26 07:25:50;0.00;0.00;0.62;0.00;0.00;0.62;3.40;3.10;;;28.60;32.50;;;;;;2248362;61;20910;-60
2022/06/26 07:28:37;0.00;0.00;0.62;0.00;0.00;0.62;3.40;3.10;;;28.60;31.80;;;;;;2248242;61;20877;-59
2022/06/26 07:31:23;0.00;0.00;0.62;0.00;0.00;0.62;3.43;3.03;;;28.70;32.00;;;;;;2248031;61;20370;-59
2022/06/26 07:34:13;0.00;0.00;0.62;0.00;0.00;0.62;3.27;2.97;;;28.70;32.10;;;;;;2251038;61;20405;-61
2022/06/26 07:36:58;0.00;0.00;0.62;0.00;0.00;0.62;3.37;3.07;;;28.70;32.10;;;;;;2250156;61;20375;-60
2022/06/26 07:39:44;0.00;0.00;0.62;0.00;0.00;0.62;3.47;3.17;;;28.70;32.20;;;;;;2248545;61;20768;-58
2022/06/26 07:42:29;0.00;0.00;0.62;0.00;0.00;0.62;3.80;3.40;;;28.80;32.30;;;;;;2247496;61;20848;-59
2022/06/26 07:45:14;0.00;0.00;0.62;0.00;0.00;0.62;5.07;3.83;;;28.80;32.30;;;;;;2248549;61;20366;-59
2022/06/26 07:48:13;0.00;0.00;0.62;0.00;0.00;0.62;4.03;3.73;;;28.80;32.40;;;;;;2477399;53;20371;-59
2022/06/26 07:51:01;0.00;0.00;0.62;0.00;0.00;0.62;4.40;4.03;;;28.90;32.50;;;;;;2246755;61;20758;-60
2022/06/26 07:53:45;0.00;0.00;0.62;0.00;0.00;0.62;8.30;3.47;;;28.90;32.50;;;;;;2246961;61;20368;-58
2022/06/26 07:56:30;0.00;0.00;0.62;0.00;0.00;0.62;4.47;4.07;;;28.90;32.50;;;;;;2252761;61;20369;-56
2022/06/26 07:59:16;0.00;0.00;0.62;0.00;0.00;0.62;4.70;3.70;;;28.90;32.50;;;;;;2253953;61;20382;-57
2022/06/26 08:02:00;0.00;0.00;0.62;0.00;0.00;0.62;4.23;3.83;;;28.90;32.50;;;;;;2245114;61;20407;-57
2022/06/26 08:04:46;0.00;0.00;0.62;0.00;0.00;0.62;4.63;4.23;;;28.90;32.40;;;;;;2270260;61;20371;-59
2022/06/26 08:07:34;0.00;0.00;0.62;0.00;0.00;0.62;4.30;3.87;;;29.00;32.30;;;;;;2250435;61;20453;-58
2022/06/26 08:10:19;0.00;0.00;0.62;0.00;0.00;0.62;4.40;3.93;;;29.00;32.30;;;;;;2545115;45;20463;-55
2022/06/26 08:13:06;0.00;0.00;0.62;0.00;0.00;0.62;3.70;3.40;;;29.00;32.30;;;;;;2251267;61;20765;-58
2022/06/26 08:15:52;0.00;0.00;0.62;0.00;0.00;0.62;3.47;3.17;;;29.00;32.20;;;;;;2251256;61;20362;-61
2022/06/26 08:18:38;0.00;0.00;0.62;0.00;0.00;0.62;8.00;3.70;;;29.00;32.10;;;;;;2247772;61;21221;-56
2022/06/26 08:24:31;0.00;0.00;0.62;0.00;0.00;0.62;3.43;3.13;;;29.10;32.20;;;;;;2251048;61;20350;-58
2022/06/26 08:27:16;0.00;0.00;0.62;0.00;0.00;0.62;3.60;3.30;;;29.10;32.10;;;;;;2251077;61;20371;-56
2022/06/26 08:30:01;0.00;0.00;0.62;0.00;0.00;0.62;5.40;3.60;;;29.10;32.10;;;;;;2250810;61;20374;-59
2022/06/26 08:32:47;0.00;0.00;0.62;0.00;0.00;0.62;3.57;3.27;;;29.10;32.10;;;;;;2251912;61;20441;-58
2022/06/26 08:35:32;0.00;0.00;0.62;0.00;0.00;0.62;4.07;3.33;;;29.10;32.10;;;;;;2250875;61;20425;-56
2022/06/26 08:38:17;0.00;0.00;0.62;0.00;0.00;0.62;4.10;3.00;;;29.20;32.10;;;;;;2250994;61;20474;-60
2022/06/26 08:41:07;0.00;0.00;0.62;0.00;0.00;0.62;3.40;3.10;;;29.20;32.80;;;;;;2251428;61;20391;-58
2022/06/26 08:43:53;0.00;0.00;0.62;0.00;0.00;0.62;4.50;3.37;;;29.20;32.20;;;;;;2247415;61;20367;-61
2022/06/26 08:46:42;0.00;0.00;0.62;0.00;0.00;0.62;5.20;3.93;;;29.20;32.10;;;;;;2251691;61;20366;-60
2022/06/26 08:49:28;0.00;0.00;0.62;0.00;0.00;0.62;3.33;2.97;;;29.30;32.20;;;;;;2251947;61;20990;-59
2022/06/26 08:52:18;0.00;0.00;0.62;0.00;0.00;0.62;5.10;3.30;;;29.30;32.10;;;;;;2251762;61;20459;-59
2022/06/26 08:55:04;0.00;0.00;0.62;0.00;0.00;0.62;3.23;2.93;;;29.30;32.10;;;;;;2248844;61;20819;-57
2022/06/26 08:57:51;0.00;0.00;0.62;0.00;0.00;0.62;3.40;3.10;;;29.30;32.10;;;;;;2251973;61;20391;-59
2022/06/26 09:00:36;0.00;0.00;0.62;0.00;0.00;0.62;4.30;3.10;;;29.30;32.10;;;;;;2248755;61;20421;-59
2022/06/26 09:03:21;0.00;0.00;0.62;0.00;0.00;0.62;3.93;2.90;;;29.40;32.10;;;;;;2252126;61;21026;-59
2022/06/26 09:06:06;0.00;0.00;0.62;0.00;0.00;0.62;3.03;2.77;;;29.40;32.20;;;;;;2248432;61;20904;-61
2022/06/26 09:08:51;0.00;0.00;0.62;0.00;0.00;0.62;3.30;3.00;;;29.40;32.10;;;;;;2252330;61;20426;-62
2022/06/26 09:11:38;0.00;0.00;0.62;0.00;0.00;0.62;3.17;2.97;;;29.40;32.10;;;;;;2251593;61;20425;-61
2022/06/26 09:14:26;0.00;0.00;0.62;0.00;0.00;0.62;3.93;3.13;;;29.40;32.20;;;;;;2251358;61;20394;-57
2022/06/26 09:17:12;0.00;0.00;0.62;0.00;0.00;0.62;3.63;3.30;;;29.50;32.10;;;;;;2251955;61;20362;-59
2022/06/26 09:19:58;0.00;0.00;0.62;0.00;0.00;0.62;3.57;3.27;;;29.50;32.00;;;;;;2251655;61;20385;-59
2022/06/26 09:22:53;0.00;0.00;0.62;0.00;0.00;0.62;2.83;2.63;;;29.50;31.90;;;;;;2250871;61;20438;-60
2022/06/26 09:25:43;0.00;0.00;0.62;0.00;0.00;0.62;3.20;2.87;;;29.50;31.90;;;;;;2251427;61;20363;-58
2022/06/26 09:28:28;0.00;0.00;0.62;0.00;0.00;0.62;3.07;2.80;;;29.50;31.80;;;;;;2248104;61;20387;-58
2022/06/26 09:31:20;0.00;0.00;0.62;0.00;0.00;0.62;3.00;2.70;;;29.60;32.00;;;;;;2249180;61;20366;-56
2022/06/26 09:34:05;0.00;0.00;0.62;0.00;0.00;0.62;2.70;2.50;;;29.60;32.00;;;;;;2250962;61;20375;-56
2022/06/26 09:36:58;0.00;0.00;0.62;0.00;0.00;0.62;2.80;2.57;;;29.60;32.00;;;;;;2251310;61;20466;-61
2022/06/26 09:39:44;0.00;0.00;0.62;0.00;0.00;0.62;3.17;2.87;;;29.60;32.00;;;;;;2248984;61;20374;-58
2022/06/26 09:42:32;0.00;0.00;0.62;0.00;0.00;0.62;2.90;2.70;;;29.60;32.00;;;;;;2251563;61;20367;-55
2022/06/26 09:45:17;0.00;0.00;0.62;0.00;0.00;0.62;2.77;2.50;;;29.70;32.10;;;;;;2251776;61;20406;-53
2022/06/26 09:48:05;0.00;0.00;0.62;0.00;0.00;0.62;2.87;2.57;;;29.70;32.00;;;;;;2248826;61;20426;-52
2022/06/26 09:50:50;0.00;0.00;0.62;0.00;0.00;0.62;4.30;3.30;;;29.70;32.00;;;;;;2251372;61;20371;-57
2022/06/26 09:53:36;0.00;0.00;0.62;0.00;0.00;0.62;2.90;2.67;;;29.80;32.10;;;;;;2251747;61;20376;-54
2022/06/26 09:56:21;0.00;0.00;0.62;0.00;0.00;0.62;3.73;2.77;;;29.80;31.80;;;;;;2251573;61;20363;-55
2022/06/26 09:59:08;0.00;0.00;0.62;0.00;0.00;0.62;3.13;2.83;;;29.80;31.80;;;;;;2251381;61;20383;-56
2022/06/26 10:08:06;0.00;0.00;0.62;0.00;0.00;0.62;3.90;3.30;;;29.90;31.70;;;;;;2251560;61;20402;-57
2022/06/26 10:10:52;0.00;0.00;0.62;0.00;0.00;0.62;3.77;3.40;;;29.90;31.70;;;;;;2251468;61;20358;-54
2022/06/26 10:13:41;0.00;0.00;0.62;0.00;0.00;0.62;3.40;2.70;;;29.90;31.70;;;;;;2251251;61;20503;-54
2022/06/26 10:17:19;0.00;0.00;0.62;0.00;0.00;0.62;3.33;3.03;;;29.90;31.80;;;;;;2251829;61;20406;-57
2022/06/26 10:20:09;0.00;0.00;0.62;0.00;0.00;0.62;3.33;3.03;;;29.90;31.80;;;;;;2251047;61;20387;-60
2022/06/26 10:22:54;0.00;0.00;0.62;0.00;0.00;0.62;3.27;2.97;;;29.90;31.80;;;;;;2251856;61;21051;-57
2022/06/26 10:25:45;0.00;0.00;0.62;0.00;0.00;0.62;3.80;3.47;;;30.00;31.90;;;;;;2251689;61;20379;-63
2022/06/26 10:28:30;0.00;0.00;0.62;0.00;0.00;0.62;3.50;3.20;;;30.00;31.90;;;;;;2251308;61;21153;-58
2022/06/26 10:31:15;0.00;0.00;0.62;0.00;0.00;0.62;3.40;3.10;;;30.00;31.80;;;;;;2252087;61;20417;-59
2022/06/26 10:34:12;0.00;0.00;0.62;0.00;0.00;0.62;8.07;3.60;;;30.10;32.00;;;;;;2251474;61;20828;-59
2022/06/26 10:37:02;0.00;0.00;0.62;0.00;0.00;0.62;3.93;3.13;;;30.00;32.00;;;;;;2251698;61;20399;-60
2022/06/26 10:39:49;0.00;0.00;0.62;0.00;0.00;0.62;3.50;3.20;;;30.10;32.00;;;;;;2252127;61;20887;-55
2022/06/26 10:42:52;0.00;0.00;0.62;0.00;0.00;0.62;4.20;3.80;;;30.10;32.10;;;;;;2251172;61;20540;-57
2022/06/26 10:45:40;0.00;0.00;0.62;0.00;0.00;0.62;3.60;3.30;;;30.10;32.10;;;;;;2252041;61;20824;-59
2022/06/26 10:48:24;0.00;0.00;0.62;0.00;0.00;0.62;3.90;3.60;;;30.10;32.30;;;;;;2251361;61;20422;-59
2022/06/26 10:51:09;0.00;0.00;0.62;0.00;0.00;0.62;3.77;3.47;;;30.20;32.30;;;;;;2251298;61;20405;-58
2022/06/26 10:53:57;0.00;0.00;0.62;0.00;0.00;0.62;3.97;3.60;;;30.20;32.20;;;;;;2251609;61;20907;-59
2022/06/26 10:56:42;0.00;0.00;0.62;0.00;0.00;0.62;3.90;3.60;;;30.20;32.20;;;;;;2251248;61;20367;-59
2022/06/26 10:59:27;0.00;0.00;0.62;0.00;0.00;0.62;4.17;3.77;;;30.20;32.20;;;;;;2251752;61;20498;-55
2022/06/26 11:02:13;0.00;0.00;0.62;0.00;0.00;0.62;3.70;3.40;;;30.30;32.10;;;;;;2251556;61;20918;-58
2022/06/26 11:04:59;0.00;0.00;0.62;0.00;0.00;0.62;3.73;3.43;;;30.30;31.90;;;;;;2251182;61;20441;-58
2022/06/26 11:07:47;0.00;0.00;0.62;0.00;0.00;0.62;4.70;3.97;;;30.40;32.00;;;;;;2251858;61;20382;-59
2022/06/26 11:10:33;0.00;0.00;0.62;0.00;0.00;0.62;3.83;3.53;;;30.30;31.90;;;;;;2251477;61;20355;-59
2022/06/26 11:13:18;0.00;0.00;0.62;0.00;0.00;0.62;4.47;4.13;;;30.30;32.00;;;;;;2251085;61;20395;-57
2022/06/26 11:16:03;0.00;0.00;0.62;0.00;0.00;0.62;4.40;3.93;;;30.40;32.10;;;;;;2251729;61;20459;-57